Time;durP1;ratioP1;P1;durP2;ratioP2;P2;SDS_P1;SDS_P2;PMS_P1;PMS_P2;Temp;Humidity;BMP_temperature;BMP_pressure;BME280_temperature;BME280_humidity;BME280_pressure;Samples;Min_cycle;Max_cycle;Signal;HPM_P1;HPM_P2
2022/03/25 00:01:30;;;;;;;69.68;42.60;;;8.60;76.50;;;6.43;73.25;101809.94;5088146;28;20555;-83
2022/03/25 00:03:57;;;;;;;65.63;40.03;;;8.60;76.70;;;6.40;74.22;101810.22;5090266;28;20039;-83
2022/03/25 00:06:26;;;;;;;74.60;41.60;;;8.50;77.10;;;6.33;74.45;101809.84;5087075;28;20040;-82
2022/03/25 00:08:53;;;;;;;69.35;41.50;;;8.50;77.40;;;6.32;74.46;101812.66;5079641;28;20512;-83
2022/03/25 00:11:21;;;;;;;67.95;40.15;;;8.40;77.10;;;6.30;74.66;101811.94;5082530;28;20503;-84
2022/03/25 00:13:49;;;;;;;69.90;41.40;;;8.40;77.50;;;6.25;74.71;101806.91;5070419;28;20143;-83
2022/03/25 00:16:16;;;;;;;69.10;41.88;;;8.40;77.50;;;6.21;74.97;101811.69;5085437;28;20063;-83
2022/03/25 00:18:44;;;;;;;70.93;42.13;;;8.30;77.50;;;6.17;74.80;101812.94;5073936;28;20547;-84
2022/03/25 00:21:11;;;;;;;78.18;41.47;;;8.30;77.60;;;6.13;75.21;101806.06;5089034;28;20036;-83
2022/03/25 00:23:38;;;;;;;72.25;41.33;;;8.30;77.90;;;6.10;75.66;101814.41;5090120;28;20079;-83
2022/03/25 00:26:05;;;;;;;73.68;43.45;;;8.30;78.00;;;6.03;76.06;101813.19;5084392;28;20143;-83
2022/03/25 00:28:33;;;;;;;70.78;41.22;;;8.20;78.20;;;6.03;75.95;101813.19;5090140;28;20047;-83
2022/03/25 00:31:01;;;;;;;71.68;41.97;;;8.20;78.00;;;6.03;76.23;101818.56;5070813;28;20045;-83
2022/03/25 00:33:31;;;;;;;76.65;43.35;;;8.20;78.10;;;5.96;76.72;101817.34;5080486;28;20082;-83
2022/03/25 00:35:58;;;;;;;72.55;41.72;;;8.10;78.80;;;5.95;76.43;101821.00;5088919;28;20044;-83
2022/03/25 00:38:25;;;;;;;74.82;41.92;;;8.10;78.50;;;5.92;76.58;101819.44;5090045;28;20123;-83
2022/03/25 00:40:53;;;;;;;73.80;40.40;;;8.10;78.70;;;5.87;76.95;101819.78;5087338;28;20140;-82
2022/03/25 00:43:20;;;;;;;71.25;41.47;;;8.10;79.00;;;5.86;77.13;101815.38;5088265;28;20032;-83
2022/03/25 00:45:47;;;;;;;77.75;43.42;;;8.00;79.10;;;5.87;76.71;101805.41;5087869;28;20376;-82
2022/03/25 00:48:17;;;;;;;70.22;41.35;;;8.00;79.10;;;5.86;77.57;101801.84;5086906;28;20411;-83
2022/03/25 00:50:44;;;;;;;71.13;41.00;;;8.00;79.20;;;5.81;77.77;101805.91;5086753;28;20044;-82
2022/03/25 00:53:12;;;;;;;68.80;40.72;;;8.00;79.60;;;5.81;77.46;101797.81;5087987;28;20055;-82
2022/03/25 00:55:42;;;;;;;76.47;40.85;;;8.00;79.60;;;5.76;77.78;101806.25;5087812;28;20059;-83
2022/03/25 00:58:09;;;;;;;72.35;41.90;;;7.90;79.70;;;5.69;78.42;101799.63;5070806;28;20052;-82
2022/03/25 01:00:37;;;;;;;72.60;40.00;;;7.90;80.00;;;5.65;78.20;101803.53;5067227;28;20045;-82
2022/03/25 01:03:05;;;;;;;81.97;40.85;;;7.90;80.00;;;5.65;77.93;101801.72;5069818;28;20037;-82
2022/03/25 01:05:34;;;;;;;78.55;42.72;;;7.80;79.70;;;5.56;78.36;101799.75;5082090;28;20036;-82
2022/03/25 01:08:01;;;;;;;68.25;39.53;;;7.80;80.00;;;5.51;78.45;101804.63;5086400;28;20118;-82
2022/03/25 01:10:28;;;;;;;69.38;40.35;;;7.70;80.10;;;5.53;78.38;101804.53;5086894;28;20048;-82
2022/03/25 01:12:56;;;;;;;72.65;41.65;;;7.70;80.20;;;5.47;78.47;101809.41;5087268;28;20566;-82
2022/03/25 01:15:23;;;;;;;71.68;41.38;;;7.60;80.40;;;5.43;78.83;101807.94;5075745;28;20505;-82
2022/03/25 01:17:50;;;;;;;73.97;41.35;;;7.60;80.50;;;5.44;79.40;101808.78;5069565;28;20036;-83
2022/03/25 01:20:18;;;;;;;69.10;40.63;;;7.60;80.80;;;5.38;79.45;101799.31;5067600;28;20055;-82
2022/03/25 01:22:46;;;;;;;71.55;39.53;;;7.60;81.00;;;5.33;79.88;101809.63;5082460;28;20151;-82
2022/03/25 01:25:14;;;;;;;69.07;39.35;;;7.50;81.20;;;5.27;80.31;101804.69;5078035;28;20067;-82
2022/03/25 01:27:41;;;;;;;71.75;41.03;;;7.50;81.20;;;5.25;80.69;101804.81;5087377;28;20155;-82
2022/03/25 01:30:11;;;;;;;68.82;38.92;;;7.40;81.20;;;5.19;80.46;101807.13;5087926;28;20289;-82
2022/03/25 01:32:38;;;;;;;68.55;39.75;;;7.40;81.40;;;5.09;81.47;101813.22;5070545;28;20067;-82
2022/03/25 01:35:09;;;;;;;71.13;39.55;;;7.30;81.70;;;5.07;81.60;101812.47;5072842;28;20043;-82
2022/03/25 01:37:36;;;;;;;69.85;40.25;;;7.30;82.10;;;5.06;81.03;101818.88;5089269;28;20048;-82
2022/03/25 01:40:09;;;;;;;70.90;40.25;;;7.30;82.00;;;5.00;81.54;101810.38;5086414;28;20565;-82
2022/03/25 01:42:39;;;;;;;66.43;39.35;;;7.20;82.30;;;4.97;82.26;101811.47;5087783;28;20048;-82
2022/03/25 01:45:08;;;;;;;72.57;40.92;;;7.20;82.60;;;4.99;82.42;101812.22;5087013;28;20082;-82
2022/03/25 01:47:36;;;;;;;69.78;40.95;;;7.20;82.60;;;5.01;82.04;101804.84;5087628;28;20063;-82
2022/03/25 01:50:13;;;;;;;71.05;40.35;;;7.20;82.80;;;4.93;82.44;101807.28;5086217;28;20040;-82
2022/03/25 01:52:40;;;;;;;69.80;40.60;;;7.20;82.80;;;4.91;82.77;101803.81;5087047;28;20384;-82
2022/03/25 01:55:18;;;;;;;76.90;38.90;;;7.10;82.80;;;4.91;82.96;101811.91;5067601;28;20039;-82
2022/03/25 01:57:46;;;;;;;74.93;40.90;;;7.10;82.80;;;4.87;83.18;101805.03;5068301;28;20045;-82
2022/03/25 02:00:15;;;;;;;71.20;39.60;;;7.10;83.10;;;4.84;82.61;101811.53;5086288;28;20048;-82
2022/03/25 02:02:49;;;;;;;67.68;38.97;;;7.00;83.00;;;4.84;83.25;101808.81;5088626;28;20478;-83
2022/03/25 02:05:17;;;;;;;66.57;39.33;;;7.00;83.40;;;4.78;83.59;101803.91;5086241;28;20064;-82
2022/03/25 02:07:46;;;;;;;71.10;40.55;;;7.00;83.80;;;4.73;84.19;101806.06;5086277;28;20048;-82
2022/03/25 02:10:16;;;;;;;69.75;39.75;;;7.00;83.90;;;4.75;83.55;101800.56;5086538;28;20134;-82
2022/03/25 02:12:45;;;;;;;69.97;39.05;;;7.00;83.70;;;4.76;83.74;101802.28;5085355;28;20048;-82
2022/03/25 02:15:12;;;;;;;74.45;39.08;;;6.90;83.80;;;4.73;83.78;101807.91;5088858;28;20040;-82
2022/03/25 02:17:39;;;;;;;75.22;40.33;;;7.00;83.90;;;4.66;84.63;101808.38;5082452;28;20063;-82
2022/03/25 02:20:12;;;;;;;66.43;37.95;;;6.90;84.10;;;4.61;84.35;101802.47;5085422;28;20110;-82
2022/03/25 02:22:42;;;;;;;72.75;40.47;;;6.90;84.30;;;4.63;83.89;101803.22;5087165;28;20052;-82
2022/03/25 02:25:14;;;;;;;75.22;40.58;;;6.80;84.00;;;4.63;84.22;101808.59;5089215;28;20496;-82
2022/03/25 02:27:42;;;;;;;70.75;39.47;;;6.80;84.00;;;4.64;84.27;101806.75;5070323;28;20052;-82
2022/03/25 02:30:12;;;;;;;70.35;39.97;;;6.80;84.20;;;4.65;83.88;101809.34;5090584;28;20060;-82
2022/03/25 02:32:39;;;;;;;72.43;39.38;;;6.80;84.30;;;4.60;84.54;101808.81;5091255;28;20073;-82
2022/03/25 02:35:08;;;;;;;72.57;40.00;;;6.80;84.50;;;4.55;84.40;101808.31;5090110;28;20036;-82
2022/03/25 02:37:35;;;;;;;68.32;37.47;;;6.80;84.40;;;4.54;84.43;101801.19;5090775;28;20089;-82
2022/03/25 02:40:05;;;;;;;68.93;39.53;;;6.70;84.50;;;4.49;85.25;101803.34;5071083;28;20037;-81
2022/03/25 02:42:32;;;;;;;73.45;40.58;;;6.70;84.80;;;4.46;84.59;101809.00;5070385;28;20048;-81
2022/03/25 02:45:00;;;;;;;73.63;39.38;;;6.70;84.80;;;4.41;85.31;101808.47;5071194;28;20090;-82
2022/03/25 02:47:27;;;;;;;73.72;40.35;;;6.60;84.70;;;4.42;85.30;101812.88;5074764;28;20045;-81
2022/03/25 02:49:55;;;;;;;70.78;40.08;;;6.60;85.10;;;4.42;85.02;101812.88;5086516;28;20500;-81
2022/03/25 02:52:22;;;;;;;74.53;40.38;;;6.60;85.00;;;4.42;85.38;101813.75;5077832;28;20040;-81
2022/03/25 02:54:49;;;;;;;69.43;39.22;;;6.60;84.90;;;4.42;84.78;101819.13;5088191;28;20040;-82
2022/03/25 02:57:18;;;;;;;67.95;39.05;;;6.60;85.00;;;4.40;85.30;101812.13;5080232;28;20060;-81
2022/03/25 02:59:45;;;;;;;75.70;41.03;;;6.60;85.20;;;4.34;85.11;101821.53;5083541;28;20044;-81
2022/03/25 03:02:13;;;;;;;68.72;39.60;;;6.50;85.20;;;4.31;85.84;101811.81;5088958;28;20054;-81
2022/03/25 03:04:40;;;;;;;73.35;39.63;;;6.50;85.70;;;4.28;85.95;101814.75;5072653;28;20040;-81
2022/03/25 03:07:08;;;;;;;67.03;39.22;;;6.50;85.60;;;4.25;85.69;101812.28;5081642;28;20560;-81
2022/03/25 03:09:35;;;;;;;70.80;39.10;;;6.40;85.90;;;4.19;86.61;101818.13;5092043;28;20059;-81
2022/03/25 03:12:04;;;;;;;68.35;38.42;;;6.40;86.00;;;4.21;86.51;101816.16;5081888;28;20037;-81
2022/03/25 03:14:32;;;;;;;72.25;38.22;;;6.40;86.00;;;4.13;86.63;101828.47;5089417;28;20123;-82
2022/03/25 03:17:00;;;;;;;72.25;39.42;;;6.40;86.20;;;4.13;86.28;101833.84;5090936;28;20099;-81
2022/03/25 03:19:27;;;;;;;68.35;39.13;;;6.40;86.00;;;4.11;86.21;101828.56;5091882;28;20054;-81
2022/03/25 03:21:54;;;;;;;70.30;38.92;;;6.30;85.90;;;4.11;86.98;101821.38;5090391;28;20397;-81
2022/03/25 03:24:21;;;;;;;75.88;39.72;;;6.30;86.20;;;4.06;87.34;101826.22;5073933;28;20067;-81
2022/03/25 03:26:49;;;;;;;77.03;40.60;;;6.30;86.40;;;4.04;87.24;101828.16;5087407;28;20120;-81
2022/03/25 03:29:16;;;;;;;72.68;39.83;;;6.20;86.30;;;4.05;87.27;101827.16;5091422;28;20075;-81
2022/03/25 03:31:45;;;;;;;69.63;38.35;;;6.30;86.40;;;4.07;87.26;101824.38;5079406;28;20047;-81
2022/03/25 03:34:12;;;;;;;75.03;38.08;;;6.30;86.60;;;4.06;87.38;101831.59;5088788;28;20040;-81
2022/03/25 03:36:39;;;;;;;70.88;39.70;;;6.30;86.80;;;4.12;87.13;101824.91;5077488;28;20133;-82
2022/03/25 03:39:06;;;;;;;70.97;38.80;;;6.20;86.70;;;4.09;87.19;101830.50;5071459;28;20070;-81
2022/03/25 03:41:34;;;;;;;67.30;38.50;;;6.30;87.00;;;4.05;87.23;101823.63;5070107;28;20109;-81
2022/03/25 03:44:01;;;;;;;66.15;38.45;;;6.20;86.70;;;4.02;87.24;101831.94;5077814;28;20124;-82
2022/03/25 03:46:28;;;;;;;72.40;39.00;;;6.20;86.50;;;4.00;87.99;101826.66;5070819;28;20389;-82
2022/03/25 03:48:57;;;;;;;72.97;40.20;;;6.20;86.70;;;3.98;87.67;101825.03;5084911;28;20546;-82
2022/03/25 03:51:24;;;;;;;70.80;38.10;;;6.20;86.80;;;3.88;87.91;101828.41;5087537;28;20044;-81
2022/03/25 03:53:51;;;;;;;66.30;38.03;;;6.20;87.10;;;3.85;87.95;101830.44;5085745;28;20117;-81
2022/03/25 03:56:19;;;;;;;69.72;39.70;;;6.10;87.20;;;3.83;88.11;101833.25;5070233;28;20048;-82
2022/03/25 03:58:46;;;;;;;67.13;39.00;;;6.10;87.00;;;3.85;88.02;101830.44;5073475;28;20044;-81
2022/03/25 04:01:13;;;;;;;71.93;39.97;;;6.00;87.00;;;3.80;87.77;101828.06;5072194;28;20102;-81
2022/03/25 04:03:40;;;;;;;73.47;37.33;;;6.00;86.90;;;3.75;88.24;101830.22;5072221;28;20056;-81
2022/03/25 04:06:09;;;;;;;75.97;41.00;;;6.00;87.30;;;3.71;88.46;101828.69;5091060;28;20051;-81
2022/03/25 04:08:36;;;;;;;72.32;38.65;;;6.00;87.20;;;3.76;88.14;101831.09;5081199;28;20041;-81
2022/03/25 04:11:04;;;;;;;72.65;39.35;;;5.90;87.30;;;3.71;88.45;101834.97;5087177;28;20471;-81
2022/03/25 04:13:31;;;;;;;69.43;39.08;;;5.90;87.60;;;3.74;88.67;101827.66;5090553;28;20040;-81
2022/03/25 04:15:58;;;;;;;70.32;39.13;;;6.00;87.80;;;3.73;88.63;101837.53;5090316;28;20477;-81
2022/03/25 04:18:26;;;;;;;66.93;37.42;;;5.90;87.90;;;3.76;88.28;101831.94;5082666;28;20067;-81
2022/03/25 04:20:53;;;;;;;66.93;38.67;;;5.90;87.80;;;3.73;88.88;101829.44;5088075;28;20118;-81
2022/03/25 04:23:22;;;;;;;75.07;38.75;;;5.90;87.90;;;3.69;89.10;101830.63;5090437;28;20144;-81
2022/03/25 04:25:49;;;;;;;73.78;40.28;;;5.90;88.00;;;3.63;88.46;101828.38;5072629;28;20032;-80
2022/03/25 04:28:17;;;;;;;73.68;40.75;;;5.90;87.90;;;3.61;89.10;101839.25;5076437;28;20068;-81
2022/03/25 04:30:44;;;;;;;69.97;39.22;;;5.80;88.00;;;3.55;89.13;101836.16;5085135;28;20040;-81
2022/03/25 04:33:11;;;;;;;71.20;38.55;;;5.80;88.00;;;3.55;89.00;101839.69;5090192;28;20051;-81
2022/03/25 04:35:38;;;;;;;72.55;38.13;;;5.80;87.80;;;3.53;89.51;101838.94;5089373;28;20095;-81
2022/03/25 04:38:07;;;;;;;68.80;38.90;;;5.80;87.80;;;3.50;88.96;101840.03;5088229;28;20138;-81
2022/03/25 04:40:35;;;;;;;69.93;38.70;;;5.70;88.00;;;3.48;90.16;101841.06;5088677;28;20067;-81
2022/03/25 04:43:03;;;;;;;72.55;40.75;;;5.70;88.50;;;3.52;89.73;101839.88;5088393;28;20484;-81
2022/03/25 04:45:32;;;;;;;77.90;40.17;;;5.70;88.40;;;3.50;89.54;101839.13;5086572;28;20042;-81
2022/03/25 04:48:00;;;;;;;72.07;38.78;;;5.70;88.50;;;3.49;89.28;101846.34;5088462;28;20040;-81
2022/03/25 04:50:28;;;;;;;70.93;38.80;;;5.70;88.40;;;3.50;88.89;101840.03;5084955;28;20159;-81
2022/03/25 04:52:56;;;;;;;69.35;38.17;;;5.70;88.40;;;3.48;89.70;101844.66;5078667;28;20504;-81
2022/03/25 04:55:24;;;;;;;73.38;40.20;;;5.70;88.50;;;3.42;89.01;101845.03;5069633;28;20115;-82
2022/03/25 04:57:52;;;;;;;71.30;39.17;;;5.60;88.50;;;3.35;89.75;101842.88;5069397;28;20060;-81
2022/03/25 05:00:20;;;;;;;70.35;39.67;;;5.60;88.60;;;3.26;90.35;101845.25;5069009;28;20052;-81
2022/03/25 05:02:47;;;;;;;70.20;39.25;;;5.60;88.50;;;3.27;89.84;101846.09;5085028;28;20044;-80
2022/03/25 05:05:15;;;;;;;67.97;38.55;;;5.50;88.60;;;3.22;90.26;101848.22;5089826;28;20068;-80
2022/03/25 05:07:44;;;;;;;72.57;38.83;;;5.50;88.80;;;3.21;90.49;101850.06;5074138;28;20045;-80
2022/03/25 05:10:12;;;;;;;70.90;39.28;;;5.50;88.90;;;3.20;89.90;101850.16;5068755;28;20054;-86
2022/03/25 05:12:39;;;;;;;69.85;39.17;;;5.50;88.60;;;3.14;91.11;101846.06;5082171;28;20135;-79
2022/03/25 05:15:10;;;;;;;71.28;38.60;;;5.50;89.10;;;3.19;90.72;101854.69;5089741;28;20040;-75
2022/03/25 05:17:45;;;;;;;67.17;36.47;;;5.50;89.00;;;3.22;91.19;101856.28;5087719;28;20572;-82
2022/03/25 05:20:15;;;;;;;77.25;39.72;;;5.40;89.00;;;3.19;90.89;101849.31;5087978;28;20393;-91
2022/03/25 05:22:42;;;;;;;68.88;39.40;;;5.50;89.20;;;3.16;91.23;101865.69;5087438;28;20052;-80
2022/03/25 05:25:10;;;;;;;72.97;40.50;;;5.40;89.30;;;3.16;91.06;101865.69;5088125;28;20522;-80
2022/03/25 05:27:49;;;;;;;70.85;38.70;;;5.40;89.40;;;3.22;90.60;101848.22;5075956;28;20040;-80
2022/03/25 05:30:21;;;;;;;77.70;40.80;;;5.40;89.50;;;3.33;90.88;101856.44;5068304;28;20062;-80
2022/03/25 05:32:49;;;;;;;73.68;40.20;;;5.40;90.00;;;3.31;91.64;101861.06;5087002;28;20439;-80
2022/03/25 05:35:16;;;;;;;68.20;39.13;;;5.40;90.10;;;3.29;91.75;101854.91;5089222;28;20040;-80
2022/03/25 05:37:44;;;;;;;70.93;39.03;;;5.50;90.30;;;3.27;92.27;101856.84;5085195;28;20560;-80
2022/03/25 05:40:12;;;;;;;72.65;39.47;;;5.50;90.10;;;3.23;92.14;101861.56;5087432;28;20139;-80
2022/03/25 05:42:40;;;;;;;74.40;38.75;;;5.50;90.10;;;3.27;92.06;101867.63;5088272;28;20050;-80
2022/03/25 05:45:09;;;;;;;72.80;39.38;;;5.60;90.00;;;3.31;91.82;101863.75;5080029;28;20041;-80
2022/03/25 05:47:40;;;;;;;78.60;40.90;;;5.60;89.80;;;3.31;91.71;101869.13;5069157;28;20068;-80
2022/03/25 05:50:11;;;;;;;70.68;38.45;;;5.60;89.60;;;3.33;92.33;101857.31;5084100;28;20141;-80
2022/03/25 05:52:39;;;;;;;;;;;5.60;89.80;;;3.37;92.54;101851.72;5073064;28;20048;-80
2022/03/25 05:55:10;;;;;;;76.38;38.95;;;5.70;90.10;;;3.38;92.89;101861.53;5084138;28;20543;-81
2022/03/25 05:57:37;;;;;;;64.75;37.70;;;5.70;90.50;;;3.43;92.79;101862.94;5077029;28;20044;-80
2022/03/25 06:00:08;;;;;;;70.70;38.38;;;5.60;90.40;;;3.44;91.33;101871.84;5085003;28;20036;-80
2022/03/25 06:02:44;;;;;;;69.60;38.65;;;5.60;90.20;;;3.43;92.09;101862.94;5089170;28;20048;-80
2022/03/25 06:05:13;;;;;;;69.72;38.35;;;5.60;90.00;;;3.47;90.87;101869.81;5087451;28;20123;-80
2022/03/25 06:07:43;;;;;;;75.07;38.13;;;5.60;89.90;;;3.51;92.21;101870.47;5086602;28;20040;-80
2022/03/25 06:10:13;;;;;;;70.35;37.53;;;5.70;90.10;;;3.59;91.83;101872.63;5078927;28;20142;-81
2022/03/25 06:12:41;;;;;;;71.43;38.60;;;5.70;90.20;;;3.65;92.42;101881.13;5087668;28;20046;-83
2022/03/25 06:15:09;;;;;;;82.30;39.20;;;5.80;90.20;;;3.70;92.36;101875.47;5088539;28;20560;-93
2022/03/25 06:17:44;;;;;;;72.78;41.13;;;5.90;90.40;;;3.81;92.53;101882.75;5088218;28;20044;-92
2022/03/25 06:20:17;;;;;;;76.03;40.25;;;6.00;90.40;;;3.88;92.53;101884.94;5076919;28;20497;-93
2022/03/25 06:22:45;;;;;;;81.85;40.08;;;6.00;90.60;;;3.99;91.97;101886.03;5076994;28;20036;-92
2022/03/25 06:25:15;;;;;;;78.68;39.88;;;6.10;90.50;;;4.12;91.48;101881.50;5086091;28;20072;-91
2022/03/25 06:27:51;;;;;;;71.97;40.88;;;6.20;90.00;;;4.20;91.32;101884.50;5087715;28;20109;-93
2022/03/25 06:30:19;;;;;;;75.25;40.42;;;6.30;90.00;;;4.20;92.02;101879.09;5066985;28;20512;-92
2022/03/25 06:32:49;;;;;;;74.65;40.72;;;6.40;90.00;;;4.36;91.55;101878.00;5074851;28;20050;-93
2022/03/25 06:35:16;;;;;;;72.70;40.35;;;6.50;89.90;;;4.43;91.69;101871.19;5085462;28;20059;-92
2022/03/25 06:37:45;;;;;;;70.63;39.28;;;6.50;90.10;;;4.53;91.53;101883.03;5076882;28;20074;-92
2022/03/25 06:40:14;;;;;;;74.60;39.60;;;6.50;90.40;;;4.53;90.77;101874.94;5088541;28;20040;-92
2022/03/25 06:42:42;;;;;;;78.28;40.53;;;6.60;90.00;;;4.68;90.42;101878.34;5085548;28;20500;-92
2022/03/25 06:45:13;;;;;;;68.25;39.88;;;6.70;89.60;;;4.77;90.87;101879.53;5087674;28;20470;-93
2022/03/25 06:47:41;;;;;;;81.00;40.78;;;6.80;89.80;;;4.87;90.24;101883.25;5081519;28;20094;-92
2022/03/25 06:50:15;;;;;;;71.68;41.65;;;6.90;89.50;;;4.98;89.82;101874.38;5075849;28;20533;-93
2022/03/25 06:52:43;;;;;;;79.22;45.00;;;6.90;89.50;;;5.00;89.48;101873.25;5085869;28;20052;-92
2022/03/25 06:55:12;;;;;;;77.15;43.20;;;7.10;89.00;;;5.08;89.65;101868.19;5088835;28;20147;-93
2022/03/25 06:57:41;;;;;;;75.32;41.47;;;7.20;88.80;;;5.26;89.19;101882.09;5078334;28;20272;-92
2022/03/25 07:00:12;;;;;;;77.82;42.70;;;7.30;88.80;;;5.42;89.13;101887.19;5088083;28;20068;-93
2022/03/25 07:02:40;;;;;;;81.95;41.47;;;7.40;88.50;;;5.52;88.20;101878.38;5089358;28;20651;-92
2022/03/25 07:05:12;;;;;;;76.82;42.92;;;7.50;88.00;;;5.66;87.58;101892.56;5086981;28;20059;-92
2022/03/25 07:07:41;;;;;;;75.30;42.60;;;7.60;87.70;;;5.81;86.83;101905.88;5080902;28;20497;-86
2022/03/25 07:10:11;;;;;;;80.75;44.58;;;7.70;87.40;;;5.88;85.92;101891.75;5090410;28;20128;-87
2022/03/25 07:12:40;;;;;;;85.40;43.22;;;7.80;86.60;;;5.99;85.02;101899.03;5090354;28;20071;-86
2022/03/25 07:15:09;;;;;;;80.90;42.92;;;8.00;86.00;;;6.14;84.93;101899.66;5091483;28;20068;-85
2022/03/25 07:17:37;;;;;;;81.03;41.90;;;8.10;85.70;;;6.21;84.52;101897.34;5079662;28;20044;-84
2022/03/25 07:20:06;;;;;;;73.90;42.10;;;8.20;85.10;;;6.35;83.61;101898.94;5079212;28;20442;-84
2022/03/25 07:22:36;;;;;;;73.13;41.58;;;8.30;84.20;;;6.49;82.32;101901.38;5090540;28;20070;-83
2022/03/25 07:25:04;;;;;;;83.10;44.75;;;8.40;84.10;;;6.57;81.81;101903.50;5091569;28;20514;-84
2022/03/25 07:27:32;;;;;;;74.88;41.97;;;8.50;83.70;;;6.68;81.21;101906.16;5087780;28;20043;-84
2022/03/25 07:29:59;;;;;;;83.18;41.60;;;8.60;83.40;;;6.72;81.56;101891.44;5091152;28;20063;-84
2022/03/25 07:32:26;;;;;;;74.35;42.47;;;8.70;83.50;;;6.89;81.43;101902.69;5087415;28;20113;-84
2022/03/25 07:34:54;;;;;;;79.57;44.33;;;8.80;83.30;;;6.99;81.06;101904.53;5087035;28;20044;-84
2022/03/25 07:37:21;;;;;;;78.47;42.15;;;8.90;83.50;;;7.11;80.73;101907.19;5076303;28;20079;-84
2022/03/25 07:39:50;;;;;;;76.47;42.55;;;9.00;83.20;;;7.26;80.49;101905.06;5070791;28;20094;-84
2022/03/25 07:42:17;;;;;;;73.78;42.30;;;9.10;82.60;;;7.36;80.95;101912.25;5085062;28;20044;-84
2022/03/25 07:44:44;;;;;;;74.03;43.17;;;9.20;82.60;;;7.42;79.07;101903.66;5085634;28;20135;-84
2022/03/25 07:47:13;;;;;;;72.90;42.63;;;9.40;82.20;;;7.59;79.15;101912.16;5081216;28;20071;-84
2022/03/25 07:49:41;;;;;;;77.32;43.47;;;9.50;81.80;;;7.71;78.21;101921.97;5088350;28;20074;-82
2022/03/25 07:52:10;;;;;;;80.03;43.67;;;9.60;81.10;;;7.82;78.45;101930.06;5086177;28;20125;-82
2022/03/25 07:54:38;;;;;;;75.13;44.15;;;9.80;81.30;;;7.94;77.95;101938.09;5090937;28;20070;-84
2022/03/25 07:57:07;;;;;;;77.45;42.90;;;9.90;80.70;;;8.06;78.30;101931.63;5090219;28;20513;-85
2022/03/25 07:59:34;;;;;;;72.53;42.75;;;10.00;81.00;;;8.20;78.67;101933.97;5080513;28;20089;-88
2022/03/25 08:02:02;;;;;;;72.93;42.38;;;10.10;80.90;;;8.38;77.20;101936.09;5079769;28;20546;-86
2022/03/25 08:04:29;;;;;;;75.00;42.03;;;10.30;80.80;;;8.52;77.57;101933.03;5088452;28;20040;-87
2022/03/25 08:06:56;;;;;;;69.85;42.35;;;10.40;80.50;;;8.69;77.38;101927.97;5086896;28;20040;-86
2022/03/25 08:09:24;;;;;;;71.60;41.75;;;10.50;80.60;;;8.83;76.86;101935.72;5089682;28;20071;-87
2022/03/25 08:11:52;;;;;;;75.97;42.35;;;10.60;79.90;;;8.94;75.45;101932.03;5081524;28;20040;-87
2022/03/25 08:14:21;;;;;;;77.25;42.78;;;10.70;79.30;;;9.09;74.91;101943.38;5091085;28;20054;-87
2022/03/25 08:16:48;;;;;;;75.72;41.83;;;10.80;79.50;;;9.20;75.36;101937.81;5081738;28;20036;-84
2022/03/25 08:19:16;;;;;;;68.32;40.20;;;10.90;79.30;;;9.35;74.17;101940.97;5079588;28;20050;-86
2022/03/25 08:21:43;;;;;;;76.03;40.00;;;11.00;78.60;;;9.54;74.76;101940.13;5087992;28;20583;-84
2022/03/25 08:29:46;;;;;;;64.30;37.20;;;11.40;77.30;;;9.84;70.88;101947.25;5071540;28;20079;-91
2022/03/25 08:32:13;;;;;;;62.53;36.50;;;11.50;76.40;;;9.87;70.96;101948.84;5087368;28;20048;-91
2022/03/25 08:34:41;;;;;;;61.30;36.10;;;11.50;76.20;;;9.92;71.49;101949.28;5088101;28;20500;-89
2022/03/25 08:37:08;;;;;;;66.65;36.60;;;11.50;76.00;;;10.02;71.47;101952.84;5089586;28;20036;-89
2022/03/25 08:39:35;;;;;;;64.47;37.72;;;11.60;76.20;;;10.11;70.89;101949.25;5090512;28;20043;-89
2022/03/25 08:42:05;;;;;;;68.20;39.30;;;11.70;75.40;;;10.21;71.11;101957.38;5087217;28;20032;-91
2022/03/25 08:44:33;;;;;;;65.97;38.92;;;11.80;76.30;;;10.34;71.04;101957.94;5098081;28;20036;-93
2022/03/25 08:47:03;;;;;;;71.35;39.47;;;11.90;76.60;;;10.39;70.41;101952.06;5090016;28;20450;-92
2022/03/25 08:49:32;;;;;;;71.10;40.90;;;12.00;75.90;;;10.42;70.45;101951.75;5085545;28;20044;-91
2022/03/25 08:52:00;;;;;;;70.88;39.63;;;12.10;75.00;;;10.50;68.81;101943.72;5084720;28;20044;-90
2022/03/25 08:54:27;;;;;;;74.90;40.85;;;12.20;75.40;;;10.55;69.30;101952.28;5078241;28;20044;-91
2022/03/25 08:56:55;;;;;;;76.13;40.55;;;12.20;75.00;;;10.69;69.55;101958.25;5078710;28;20040;-92
2022/03/25 08:59:24;;;;;;;66.30;38.15;;;12.30;75.40;;;10.82;68.15;101956.03;5093741;28;20100;-90
2022/03/25 09:01:51;;;;;;;73.75;40.22;;;12.40;74.70;;;10.85;68.79;101949.44;5094122;28;20042;-91
2022/03/25 09:04:20;;;;;;;62.42;37.47;;;12.40;74.40;;;10.89;67.51;101956.28;5090910;28;20048;-91
2022/03/25 09:06:48;;;;;;;66.28;38.13;;;12.40;73.60;;;11.03;66.67;101958.50;5088107;28;20052;-91
2022/03/25 09:09:15;;;;;;;67.65;37.42;;;12.50;73.40;;;11.06;66.32;101949.16;5089010;28;20048;-91
2022/03/25 09:11:43;;;;;;;62.03;34.40;;;12.60;72.30;;;11.13;64.93;101953.00;5085485;28;20044;-92
2022/03/25 09:14:11;;;;;;;70.85;34.22;;;12.60;72.60;;;11.14;63.62;101954.72;5080870;28;20062;-90
2022/03/25 09:16:39;;;;;;;60.22;35.25;;;12.60;71.50;;;11.14;64.30;101958.31;5086015;28;20036;-91
2022/03/25 09:19:06;;;;;;;68.70;35.75;;;12.70;71.60;;;11.22;64.13;101965.72;5076348;28;21332;-91
2022/03/25 09:21:35;;;;;;;63.47;35.67;;;12.70;69.90;;;11.29;64.24;101955.03;5076028;28;20076;-91
2022/03/25 09:24:02;;;;;;;69.38;33.60;;;12.80;70.70;;;11.38;62.28;101962.28;5077401;28;20123;-90
2022/03/25 09:26:30;;;;;;;66.60;36.00;;;12.90;70.50;;;11.46;62.50;101961.53;5070553;28;20055;-91
2022/03/25 09:28:58;;;;;;;72.68;34.42;;;12.90;69.90;;;11.48;62.60;101964.94;5082305;28;20036;-92
2022/03/25 09:31:25;;;;;;;62.13;35.38;;;12.90;69.10;;;11.58;61.90;101964.91;5079442;28;20049;-91
2022/03/25 09:35:08;;;;;;;64.55;33.33;;;13.00;70.10;;;11.61;61.25;101959.13;5082508;28;20048;-91
2022/03/25 09:36:43;;;;;;;58.67;30.10;;;13.00;69.10;;;11.69;57.70;101964.63;5091303;28;20480;-91
2022/03/25 09:39:10;;;;;;;52.88;28.73;;;13.10;65.10;;;11.71;58.40;101959.91;5088976;28;20561;-91
2022/03/25 09:41:38;;;;;;;58.35;29.30;;;13.10;65.70;;;11.73;56.85;101964.19;5091133;28;20542;-91
2022/03/25 09:44:06;;;;;;;57.40;30.20;;;13.20;63.70;;;11.77;57.92;101963.88;5077095;28;20040;-91
2022/03/25 09:46:41;;;;;;;60.95;30.50;;;13.20;63.60;;;11.91;57.69;101966.91;5074410;28;20036;-91
2022/03/25 09:49:09;;;;;;;50.35;28.02;;;13.30;65.90;;;12.00;57.38;101958.81;5088675;28;20443;-91
2022/03/25 09:51:37;;;;;;;52.67;27.58;;;13.40;65.00;;;12.04;54.76;101955.59;5081574;28;20097;-90
2022/03/25 09:54:07;;;;;;;50.75;28.00;;;13.40;62.10;;;12.05;56.08;101951.88;5088029;28;20044;-92
2022/03/25 09:56:35;;;;;;;52.63;26.60;;;13.40;62.90;;;12.14;54.53;101963.69;5086820;28;20400;-89
2022/03/25 09:59:03;;;;;;;46.75;25.38;;;13.50;63.00;;;12.21;54.19;101964.78;5085135;28;20051;-83
2022/03/25 10:01:30;;;;;;;45.38;24.63;;;13.50;63.30;;;12.29;54.93;101963.97;5086755;28;20341;-83
2022/03/25 10:03:57;;;;;;;48.28;25.00;;;13.50;62.50;;;12.26;53.04;101962.44;5087058;28;20442;-80
2022/03/25 10:06:25;;;;;;;48.05;24.95;;;13.60;60.70;;;12.32;53.48;101960.94;5087916;28;20151;-79
2022/03/25 10:08:57;;;;;;;50.47;24.45;;;13.60;61.10;;;12.38;52.31;101973.09;5083984;28;20058;-79
2022/03/25 10:11:28;;;;;;;48.00;25.15;;;13.60;59.80;;;12.41;52.43;101967.28;5085944;28;20040;-79
2022/03/25 10:14:18;;;;;;;47.03;26.33;;;13.70;60.50;;;12.48;53.05;101963.75;5088896;28;20055;-79
2022/03/25 10:16:47;;;;;;;47.10;24.75;;;13.70;61.10;;;12.58;52.93;101965.50;5088033;28;20795;-79
2022/03/25 10:19:17;;;;;;;51.60;25.52;;;13.80;61.60;;;12.63;52.33;101954.97;5086788;28;20464;-79
2022/03/25 10:21:54;;;;;;;44.42;25.45;;;13.90;61.20;;;12.69;53.08;101965.22;5085982;28;20051;-79